Time;durP1;ratioP1;P1;durP2;ratioP2;P2;SDS_P1;SDS_P2;PMS_P1;PMS_P2;Temp;Humidity;BMP_temperature;BMP_pressure;BME280_temperature;BME280_humidity;BME280_pressure;Samples;Min_cycle;Max_cycle;Signal;HPM_P1;HPM_P2
2022/07/05 00:01:03;;;;;;;5.03;2.93;;;15.30;99.90;;;;;;5093051;28;20044;-67
2022/07/05 00:03:29;;;;;;;6.23;2.97;;;15.30;99.90;;;;;;5092266;28;20896;-68
2022/07/05 00:05:56;;;;;;;5.70;3.17;;;15.20;99.90;;;;;;5092827;28;20048;-68
2022/07/05 00:08:22;;;;;;;5.57;3.27;;;15.20;99.90;;;;;;5092527;28;20292;-68
2022/07/05 00:10:48;;;;;;;6.63;3.50;;;15.10;99.90;;;;;;5092934;28;20745;-67
2022/07/05 00:13:14;;;;;;;8.07;3.00;;;15.20;99.90;;;;;;5092514;28;20044;-68
2022/07/05 00:15:40;;;;;;;6.40;3.07;;;15.10;99.90;;;;;;5074866;28;20051;-67
2022/07/05 00:18:06;;;;;;;6.07;2.70;;;15.10;99.90;;;;;;5092711;28;20712;-67
2022/07/05 00:20:32;;;;;;;6.73;3.10;;;15.10;99.90;;;;;;5092461;28;20393;-67
2022/07/05 00:22:58;;;;;;;5.30;3.07;;;15.10;99.90;;;;;;5092654;28;20043;-67
2022/07/05 00:25:23;;;;;;;6.57;3.53;;;15.00;99.90;;;;;;5093364;28;20059;-68
2022/07/05 00:27:49;;;;;;;5.73;3.73;;;15.00;99.90;;;;;;5096492;28;20127;-67
2022/07/05 00:30:15;;;;;;;6.70;3.50;;;15.00;99.90;;;;;;5096234;28;20047;-68
2022/07/05 00:32:41;;;;;;;5.70;3.27;;;15.00;99.90;;;;;;5096739;28;20058;-67
2022/07/05 00:35:08;;;;;;;6.90;3.20;;;14.90;99.90;;;;;;5096416;28;20040;-67
2022/07/05 00:37:34;;;;;;;5.07;3.33;;;15.00;99.90;;;;;;5095983;28;20551;-67
2022/07/05 00:40:01;;;;;;;7.77;3.53;;;14.90;99.90;;;;;;5096309;28;20343;-67
2022/07/05 00:42:26;;;;;;;6.03;3.63;;;14.90;99.90;;;;;;5096054;28;20285;-67
2022/07/05 00:44:52;;;;;;;6.67;4.23;;;14.90;99.90;;;;;;5096116;28;20274;-67
2022/07/05 00:47:18;;;;;;;5.97;3.30;;;14.90;99.90;;;;;;5095840;28;20036;-68
2022/07/05 00:49:45;;;;;;;6.73;3.73;;;14.90;99.90;;;;;;5078037;28;20281;-67
2022/07/05 00:52:11;;;;;;;8.00;3.20;;;15.00;99.90;;;;;;5095962;28;20300;-67
2022/07/05 00:54:38;;;;;;;6.37;3.07;;;14.90;99.90;;;;;;5095408;28;20812;-67
2022/07/05 00:57:05;;;;;;;5.63;3.63;;;14.90;99.90;;;;;;5096001;28;20757;-67
2022/07/05 00:59:31;;;;;;;6.00;3.20;;;14.80;99.90;;;;;;5095532;28;20395;-67
2022/07/05 01:01:57;;;;;;;6.47;3.40;;;14.80;99.90;;;;;;5096076;28;20274;-67
2022/07/05 01:04:24;;;;;;;6.07;3.50;;;14.80;99.90;;;;;;5095202;28;20766;-67
2022/07/05 01:06:51;;;;;;;7.47;4.03;;;14.80;99.90;;;;;;5095720;28;20278;-67
2022/07/05 01:09:19;;;;;;;8.40;4.10;;;14.70;99.90;;;;;;5095621;28;20266;-73
2022/07/05 01:11:48;;;;;;;6.90;3.57;;;14.70;99.90;;;;;;5095586;28;20343;-68
2022/07/05 01:14:20;;;;;;;5.60;3.27;;;14.70;99.90;;;;;;5095572;28;20308;-67
2022/07/05 01:16:48;;;;;;;6.70;3.73;;;14.70;99.90;;;;;;5095742;28;20281;-67
2022/07/05 01:19:13;;;;;;;7.57;3.60;;;14.70;99.90;;;;;;5095466;28;20294;-67
2022/07/05 01:21:42;;;;;;;5.67;3.80;;;14.60;99.90;;;;;;5095188;28;20278;-67
2022/07/05 01:24:10;;;;;;;10.40;4.40;;;14.60;99.90;;;;;;5095191;28;20559;-67
2022/07/05 01:26:37;;;;;;;6.03;4.20;;;14.60;99.90;;;;;;5094807;28;20664;-67
2022/07/05 01:29:02;;;;;;;6.20;3.77;;;14.60;99.90;;;;;;5095293;28;20290;-67
2022/07/05 01:31:28;;;;;;;5.47;3.67;;;14.50;99.90;;;;;;5095374;28;20282;-68
2022/07/05 01:33:54;;;;;;;7.83;3.83;;;14.60;99.90;;;;;;5095345;28;20395;-67
2022/07/05 01:36:20;;;;;;;7.20;3.60;;;14.50;99.90;;;;;;5094749;28;20127;-67
2022/07/05 01:38:46;;;;;;;5.80;3.87;;;14.50;99.90;;;;;;5077259;28;20108;-67
2022/07/05 01:41:12;;;;;;;8.20;3.50;;;14.50;99.90;;;;;;5095188;28;20282;-67
2022/07/05 01:43:37;;;;;;;5.23;3.50;;;14.50;99.90;;;;;;5094530;28;20285;-67
2022/07/05 01:46:05;;;;;;;7.53;3.97;;;14.50;99.90;;;;;;5095112;28;20172;-67
2022/07/05 01:48:34;;;;;;;7.30;3.97;;;14.50;99.90;;;;;;5094669;28;20055;-68
2022/07/05 01:51:09;;;;;;;6.37;3.70;;;14.50;99.90;;;;;;5094901;28;20278;-68
2022/07/05 01:53:38;;;;;;;7.30;3.63;;;14.50;99.90;;;;;;5094643;28;20282;-68
2022/07/05 01:56:04;;;;;;;6.63;4.50;;;14.40;99.90;;;;;;5094817;28;20278;-67
2022/07/05 01:58:31;;;;;;;7.73;4.43;;;14.40;99.90;;;;;;5094400;28;20380;-67
2022/07/05 02:00:58;;;;;;;6.03;3.97;;;14.40;99.90;;;;;;5094754;28;20048;-67
2022/07/05 02:03:24;;;;;;;7.00;4.73;;;14.30;99.90;;;;;;5094422;28;20316;-68
2022/07/05 02:05:50;;;;;;;6.67;4.37;;;14.30;99.90;;;;;;5094609;28;20776;-67
2022/07/05 02:08:17;;;;;;;6.73;4.43;;;14.30;99.90;;;;;;5060023;28;20282;-67
2022/07/05 02:10:44;;;;;;;8.63;3.90;;;14.30;99.90;;;;;;5094289;28;20083;-67
2022/07/05 02:13:10;;;;;;;7.43;4.50;;;14.30;99.90;;;;;;5094477;28;20638;-67
2022/07/05 02:15:38;;;;;;;6.00;3.83;;;14.10;99.90;;;;;;5094157;28;20818;-67
2022/07/05 02:18:05;;;;;;;5.83;3.97;;;14.20;99.90;;;;;;5094293;28;20369;-67
2022/07/05 02:20:31;;;;;;;7.47;4.47;;;14.20;99.90;;;;;;5094046;28;20617;-68
2022/07/05 02:22:57;;;;;;;5.43;3.60;;;14.20;99.90;;;;;;5094221;28;20278;-67
2022/07/05 02:25:23;;;;;;;6.87;4.00;;;14.10;99.90;;;;;;5094330;28;20369;-67
2022/07/05 02:27:50;;;;;;;7.13;4.13;;;14.20;99.90;;;;;;5093810;28;20047;-67
2022/07/05 02:30:16;;;;;;;7.73;4.40;;;14.10;99.90;;;;;;5076033;28;20457;-67
2022/07/05 02:32:42;;;;;;;5.53;4.00;;;14.20;99.90;;;;;;5093849;28;20309;-67
2022/07/05 02:35:09;;;;;;;6.73;4.10;;;14.10;99.90;;;;;;5076297;28;20480;-67
2022/07/05 02:37:35;;;;;;;7.00;3.90;;;14.10;99.90;;;;;;5093646;28;20052;-67
2022/07/05 02:40:01;;;;;;;7.23;4.13;;;14.10;99.90;;;;;;5093952;28;20301;-67
2022/07/05 02:42:27;;;;;;;6.47;4.27;;;14.10;99.90;;;;;;5093905;28;20754;-67
2022/07/05 02:44:52;;;;;;;6.30;4.27;;;14.00;99.90;;;;;;5093340;28;20050;-67
2022/07/05 02:47:18;;;;;;;5.30;3.80;;;14.00;99.90;;;;;;5093573;28;20073;-67
2022/07/05 02:49:44;;;;;;;7.40;4.50;;;14.00;99.90;;;;;;5092955;28;20047;-67
2022/07/05 02:52:09;;;;;;;6.20;4.20;;;14.00;99.90;;;;;;5093645;28;20189;-67
2022/07/05 02:54:35;;;;;;;7.20;4.10;;;14.00;99.90;;;;;;5093442;28;20056;-67
2022/07/05 02:57:01;;;;;;;6.53;4.17;;;14.00;99.90;;;;;;5093967;28;20055;-67
2022/07/05 02:59:27;;;;;;;8.07;4.13;;;13.90;99.90;;;;;;5093557;28;20044;-67
2022/07/05 03:01:52;;;;;;;7.13;4.13;;;13.90;99.90;;;;;;5093251;28;20123;-67
2022/07/05 03:04:18;;;;;;;5.80;3.40;;;13.90;99.90;;;;;;5093610;28;20039;-67
2022/07/05 03:06:44;;;;;;;7.30;4.07;;;13.90;99.90;;;;;;5093193;28;20138;-67
2022/07/05 03:09:10;;;;;;;5.60;3.73;;;13.90;99.90;;;;;;5093697;28;20044;-67
2022/07/05 03:11:36;;;;;;;6.63;4.17;;;13.90;99.90;;;;;;5093099;28;20047;-68
2022/07/05 03:14:02;;;;;;;7.77;4.30;;;13.90;99.90;;;;;;5093364;28;20050;-67
2022/07/05 03:16:29;;;;;;;5.80;4.20;;;13.90;99.90;;;;;;5075456;28;20286;-67
2022/07/05 03:18:55;;;;;;;5.73;4.23;;;13.90;99.90;;;;;;5093325;28;20123;-67
2022/07/05 03:21:21;;;;;;;6.87;4.50;;;13.90;99.90;;;;;;5093379;28;20360;-67
2022/07/05 03:23:46;;;;;;;9.20;5.00;;;13.90;99.90;;;;;;5092945;28;20357;-67
2022/07/05 03:26:12;;;;;;;7.23;4.73;;;13.90;99.90;;;;;;5093200;28;20112;-67
2022/07/05 03:28:38;;;;;;;7.33;4.23;;;13.90;99.90;;;;;;5092848;28;20075;-68
2022/07/05 03:31:03;;;;;;;5.07;3.87;;;13.90;99.90;;;;;;5093450;28;20086;-67
2022/07/05 03:33:29;;;;;;;8.43;4.43;;;13.90;99.90;;;;;;5093099;28;20047;-67
2022/07/05 03:35:55;;;;;;;7.83;5.20;;;13.90;99.90;;;;;;5092685;28;20488;-67
2022/07/05 03:38:20;;;;;;;10.97;4.23;;;13.90;99.90;;;;;;5092933;28;20055;-67
2022/07/05 03:40:46;;;;;;;6.43;4.10;;;13.90;99.90;;;;;;5092713;28;20480;-67
2022/07/05 03:43:12;;;;;;;13.57;4.77;;;14.00;99.90;;;;;;5093277;28;20140;-67
2022/07/05 03:45:37;;;;;;;7.97;5.17;;;13.90;99.90;;;;;;5092639;28;20051;-68
2022/07/05 03:48:03;;;;;;;6.77;4.33;;;13.90;99.90;;;;;;5093001;28;20039;-67
2022/07/05 03:50:29;;;;;;;7.87;4.50;;;14.00;99.90;;;;;;5092952;28;20105;-67
2022/07/05 03:52:55;;;;;;;7.10;4.40;;;14.00;99.90;;;;;;5092734;28;20899;-67
2022/07/05 03:55:20;;;;;;;7.13;4.30;;;14.00;99.90;;;;;;5093126;28;20056;-67
2022/07/05 03:57:47;;;;;;;7.10;4.30;;;14.00;99.90;;;;;;5092479;28;20052;-67
2022/07/05 04:00:13;;;;;;;6.53;4.40;;;14.10;99.90;;;;;;5095443;28;20050;-67
2022/07/05 04:02:39;;;;;;;6.00;4.37;;;14.00;99.90;;;;;;5096783;28;20626;-68
2022/07/05 04:05:05;;;;;;;9.50;4.77;;;14.00;99.90;;;;;;5096979;28;20278;-67
2022/07/05 04:07:31;;;;;;;7.53;4.20;;;14.00;99.90;;;;;;5096860;28;20044;-67
2022/07/05 04:09:57;;;;;;;5.83;3.83;;;13.90;99.90;;;;;;5078722;28;20282;-67
2022/07/05 04:12:23;;;;;;;6.67;4.50;;;13.90;99.90;;;;;;5078798;28;20044;-67
2022/07/05 04:14:48;;;;;;;5.67;3.77;;;14.00;99.90;;;;;;5078553;28;20047;-67
2022/07/05 04:17:14;;;;;;;7.03;4.03;;;14.00;99.90;;;;;;5097045;28;20429;-67
2022/07/05 04:19:40;;;;;;;7.23;4.20;;;14.00;99.90;;;;;;5096344;28;20094;-68
2022/07/05 04:22:05;;;;;;;6.57;4.30;;;14.00;99.90;;;;;;5096667;28;20055;-67
2022/07/05 04:24:31;;;;;;;8.20;4.13;;;14.00;99.90;;;;;;5078559;28;20178;-67
2022/07/05 04:26:57;;;;;;;5.30;4.13;;;14.10;99.90;;;;;;5096267;28;20531;-68
2022/07/05 04:29:23;;;;;;;7.93;4.20;;;14.00;99.90;;;;;;5096519;28;20411;-67
2022/07/05 04:31:48;;;;;;;6.90;4.50;;;14.00;99.90;;;;;;5096102;28;20044;-68
2022/07/05 04:34:14;;;;;;;7.87;4.10;;;14.10;99.90;;;;;;5078549;28;20055;-67
2022/07/05 04:36:40;;;;;;;6.97;3.90;;;14.10;99.90;;;;;;5096195;28;20055;-67
2022/07/05 04:39:07;;;;;;;8.53;4.70;;;14.10;99.90;;;;;;5096205;28;20043;-67
2022/07/05 04:41:33;;;;;;;6.17;4.00;;;14.20;99.90;;;;;;5096452;28;20177;-67
2022/07/05 04:43:59;;;;;;;6.53;3.77;;;14.20;99.90;;;;;;5077875;28;20289;-68
2022/07/05 04:46:24;;;;;;;6.37;3.57;;;14.30;99.90;;;;;;5096073;28;20285;-67
2022/07/05 04:48:50;;;;;;;7.07;4.07;;;14.40;99.90;;;;;;5095842;28;20079;-67
2022/07/05 04:51:16;;;;;;;6.20;3.77;;;14.50;99.90;;;;;;5095816;28;20044;-67
2022/07/05 04:53:42;;;;;;;6.00;3.93;;;14.60;99.90;;;;;;5096210;28;20059;-67
2022/07/05 04:56:08;;;;;;;5.63;3.50;;;14.70;99.90;;;;;;5096190;28;20043;-67
2022/07/05 04:58:34;;;;;;;5.40;3.20;;;14.80;99.90;;;;;;5095995;28;20297;-67
2022/07/05 05:01:00;;;;;;;7.83;3.80;;;14.90;99.90;;;;;;5095631;28;20080;-67
2022/07/05 05:03:26;;;;;;;5.10;3.13;;;15.10;99.90;;;;;;5095558;28;20566;-67
2022/07/05 05:05:52;;;;;;;7.27;3.40;;;15.20;99.90;;;;;;5095159;28;20784;-68
2022/07/05 05:08:17;;;;;;;5.37;3.10;;;15.30;99.90;;;;;;5096015;28;20270;-67
2022/07/05 05:10:44;;;;;;;5.30;3.10;;;15.50;99.90;;;;;;5094870;28;20418;-68
2022/07/05 05:13:09;;;;;;;6.63;2.90;;;15.60;99.90;;;;;;5095504;28;20083;-67
2022/07/05 05:15:35;;;;;;;6.33;2.87;;;15.70;99.90;;;;;;5060959;28;20340;-68
2022/07/05 05:18:01;;;;;;;5.77;2.70;;;15.90;99.90;;;;;;5095321;28;20082;-68
2022/07/05 05:20:27;;;;;;;7.20;2.97;;;16.00;99.90;;;;;;5095820;28;20076;-68
2022/07/05 05:22:53;;;;;;;7.90;2.77;;;16.10;99.90;;;;;;5095572;28;20765;-68
2022/07/05 05:25:19;;;;;;;5.13;2.67;;;16.30;99.90;;;;;;5097570;28;20044;-68
2022/07/05 05:27:46;;;;;;;5.70;2.27;;;16.40;99.90;;;;;;5115719;28;20126;-67
2022/07/05 05:30:13;;;;;;;6.03;2.70;;;16.60;99.90;;;;;;5115865;28;20043;-67
2022/07/05 05:32:39;;;;;;;9.13;2.93;;;16.70;99.90;;;;;;5115878;28;20338;-67
2022/07/05 05:35:06;;;;;;;9.07;2.97;;;16.80;99.90;;;;;;5115435;28;20305;-67
2022/07/05 05:37:44;;;;;;;8.37;2.80;;;17.00;99.90;;;;;;5115667;28;20278;-68
2022/07/05 05:40:10;;;;;;;7.83;2.60;;;17.20;99.90;;;;;;5115036;28;20634;-67
2022/07/05 05:42:36;;;;;;;11.07;2.93;;;17.40;99.90;;;;;;5115653;28;20356;-67
2022/07/05 05:45:02;;;;;;;9.00;2.00;;;17.60;99.90;;;;;;5115287;28;20740;-67
2022/07/05 05:47:27;;;;;;;6.30;1.80;;;17.70;99.90;;;;;;5115439;28;20044;-68
2022/07/05 05:49:53;;;;;;;12.63;2.00;;;18.00;99.90;;;;;;5096952;28;20036;-68
2022/07/05 05:52:19;;;;;;;4.93;1.60;;;18.10;99.90;;;;;;5115339;28;20055;-68
2022/07/05 05:54:44;;;;;;;10.77;2.70;;;18.60;99.90;;;;;;5115294;28;20048;-68
2022/07/05 05:57:10;;;;;;;13.67;2.53;;;21.10;99.90;;;;;;5097043;28;20086;-68
2022/07/05 05:59:36;;;;;;;6.17;2.00;;;22.40;99.90;;;;;;5115162;28;20044;-68
2022/07/05 06:02:01;;;;;;;8.43;2.03;;;22.70;99.90;;;;;;5114931;28;20471;-68
2022/07/05 06:04:27;;;;;;;8.50;1.93;;;23.70;98.60;;;;;;5115159;28;20479;-68
2022/07/05 06:06:53;;;;;;;4.83;1.80;;;24.50;99.50;;;;;;5096941;28;20087;-70
2022/07/05 06:09:18;;;;;;;8.77;2.13;;;25.90;89.00;;;;;;5115302;28;20058;-69
2022/07/05 06:11:44;;;;;;;6.07;1.80;;;26.40;64.50;;;;;;5096941;28;20056;-68
2022/07/05 06:14:11;;;;;;;5.97;1.60;;;;;;;;;;5114626;28;20043;-67
2022/07/05 06:16:37;;;;;;;8.90;1.90;;;27.40;69.80;;;;;;5114872;28;20047;-69
2022/07/05 06:19:03;;;;;;;11.47;2.13;;;27.90;64.10;;;;;;5114492;28;20066;-69
2022/07/05 06:21:28;;;;;;;9.87;1.67;;;29.00;56.30;;;;;;5095424;28;20096;-70
2022/07/05 06:23:54;;;;;;;7.50;1.63;;;29.00;57.80;;;;;;5114120;28;20056;-69
2022/07/05 06:26:20;;;;;;;7.13;1.57;;;29.40;85.60;;;;;;5115090;28;20031;-69
2022/07/05 06:28:46;;;;;;;7.33;1.80;;;;;;;;;;5114645;28;20616;-69
2022/07/05 06:31:11;;;;;;;5.93;2.10;;;30.80;80.30;;;;;;5114537;28;20096;-67
2022/07/05 06:33:37;;;;;;;6.93;2.00;;;30.90;49.40;;;;;;5114619;28;20131;-67
2022/07/05 06:36:03;;;;;;;5.60;1.83;;;30.90;47.90;;;;;;5114628;28;20051;-67
2022/07/05 06:38:29;;;;;;;8.75;2.20;;;30.90;46.40;;;;;;5114521;28;20040;-67
2022/07/05 06:40:56;;;;;;;6.72;2.03;;;31.20;44.70;;;;;;5114430;28;20051;-67
2022/07/05 06:43:22;;;;;;;7.13;2.00;;;31.40;44.20;;;;;;5113950;28;20527;-67
2022/07/05 06:45:48;;;;;;;8.20;1.83;;;31.40;43.90;;;;;;5114336;28;20043;-67
2022/07/05 06:48:17;;;;;;;8.02;2.00;;;31.50;42.90;;;;;;5113478;28;20048;-69
2022/07/05 06:50:43;;;;;;;8.75;2.10;;;;;;;;;;5113726;27;20686;-69
2022/07/05 06:53:11;;;;;;;6.68;1.70;;;;;;;;;;5111698;27;20066;-70
2022/07/05 06:55:37;;;;;;;8.57;2.05;;;;;;;;;;5110070;28;20082;-70
2022/07/05 06:58:05;;;;;;;6.70;2.05;;;32.60;38.40;;;;;;5118039;27;20044;-70
2022/07/05 07:00:31;;;;;;;7.82;2.63;;;32.70;39.80;;;;;;5091989;28;20120;-74
2022/07/05 07:02:58;;;;;;;4.50;1.60;;;32.30;39.60;;;;;;5101477;27;20043;-75
2022/07/05 07:05:24;;;;;;;6.07;1.70;;;;;;;;;;5113939;27;20044;-70
2022/07/05 07:10:35;;;;;;;6.85;1.88;;;29.80;41.00;;;;;;5114011;28;20052;-70
2022/07/05 07:13:02;;;;;;;10.07;2.97;;;;;;;;;;5105911;28;20040;-73
2022/07/05 07:15:29;;;;;;;7.47;1.67;;;30.10;78.30;;;;;;5104545;28;20043;-68
2022/07/05 07:17:55;;;;;;;5.85;1.90;;;;;;;;;;5102435;28;20100;-67
2022/07/05 07:20:21;;;;;;;9.65;2.10;;;29.80;40.10;;;;;;5112678;28;20130;-70
2022/07/05 07:22:47;;;;;;;6.38;2.25;;;;;;;;;;5095763;28;20127;-67
2022/07/05 07:25:13;;;;;;;7.10;2.45;;;30.80;39.50;;;;;;5096156;28;20040;-67
2022/07/05 07:27:46;;;;;;;5.15;1.98;;;;;;;;;;5109056;28;20463;-67
2022/07/05 07:30:13;;;;;;;5.07;1.70;;;31.60;77.50;;;;;;5110779;28;20043;-67
2022/07/05 07:32:39;;;;;;;5.10;1.70;;;32.10;38.00;;;;;;5113368;28;20039;-67
2022/07/05 07:35:06;;;;;;;4.90;1.80;;;32.50;37.90;;;;;;5109095;27;20054;-67
2022/07/05 07:37:32;;;;;;;8.15;2.40;;;33.00;36.50;;;;;;5102622;28;20051;-67
2022/07/05 07:39:58;;;;;;;9.30;2.10;;;33.10;35.90;;;;;;5113164;28;20471;-67
2022/07/05 07:42:24;;;;;;;6.80;1.90;;;33.10;35.60;;;;;;5081429;28;20044;-67
2022/07/05 07:44:50;;;;;;;4.80;1.77;;;;;;;;;;5113159;28;20584;-67
2022/07/05 07:47:16;;;;;;;6.25;1.83;;;;;;;;;;5105906;28;20063;-67
2022/07/05 07:49:42;;;;;;;5.35;1.90;;;;;;;;;;5106358;28;20595;-68
2022/07/05 07:52:08;;;;;;;4.32;1.35;;;;;;;;;;5111044;28;20459;-68
2022/07/05 07:54:35;;;;;;;3.38;1.45;;;;;;;;;;5109089;28;20048;-68
2022/07/05 07:57:04;;;;;;;5.75;1.50;;;;;;;;;;5108268;28;20093;-68
2022/07/05 07:59:29;;;;;;;5.90;1.67;;;30.50;70.40;;;;;;5093294;28;20477;-67
2022/07/05 08:01:55;;;;;;;5.22;1.60;;;30.00;36.30;;;;;;5084773;28;20082;-68
2022/07/05 08:04:21;;;;;;;8.88;1.90;;;29.80;38.60;;;;;;5103517;28;20051;-67
2022/07/05 08:06:47;;;;;;;4.35;1.70;;;30.40;38.60;;;;;;5101587;28;20079;-67
2022/07/05 08:09:13;;;;;;;6.82;1.80;;;31.20;38.50;;;;;;5084635;28;20040;-68
2022/07/05 08:11:39;;;;;;;4.10;1.52;;;;;;;;;;5107520;28;20519;-67
2022/07/05 08:14:05;;;;;;;7.43;1.77;;;;;;;;;;5076898;28;20383;-70
2022/07/05 08:16:32;;;;;;;3.78;1.58;;;;;;;;;;5093876;28;20047;-68
2022/07/05 08:21:43;;;;;;;4.70;1.67;;;;;;;;;;5099268;28;20130;-67
2022/07/05 08:24:13;;;;;;;7.00;1.67;;;31.30;40.20;;;;;;5096552;28;20080;-67
2022/07/05 08:26:40;;;;;;;4.18;1.65;;;31.40;36.90;;;;;;5098486;28;20119;-70
2022/07/05 08:29:08;;;;;;;7.97;1.95;;;31.60;36.40;;;;;;5095215;28;20044;-71
2022/07/05 08:31:36;;;;;;;7.68;1.77;;;;;;;;;;5093877;28;20044;-68
2022/07/05 08:34:03;;;;;;;7.00;2.15;;;;;;;;;;5096932;28;20067;-67
2022/07/05 08:36:29;;;;;;;6.10;2.30;;;30.20;36.60;;;;;;5099951;28;20048;-67
2022/07/05 08:38:54;;;;;;;5.40;1.98;;;29.80;37.80;;;;;;5074190;28;20044;-66
2022/07/05 08:41:21;;;;;;;5.30;1.60;;;29.40;47.50;;;;;;5104815;28;20055;-67
2022/07/05 08:43:48;;;;;;;6.30;1.80;;;28.90;38.80;;;;;;5107590;28;20051;-67
2022/07/05 08:46:15;;;;;;;4.85;1.50;;;;;;;;;;5092739;28;20052;-66
2022/07/05 08:48:48;;;;;;;5.38;1.65;;;28.20;38.40;;;;;;5084214;28;20180;-68
2022/07/05 08:51:16;;;;;;;4.53;1.70;;;28.60;40.10;;;;;;5104563;28;20092;-67
2022/07/05 08:53:43;;;;;;;6.43;1.70;;;29.20;39.90;;;;;;5095865;28;20275;-66
2022/07/05 08:56:10;;;;;;;4.32;1.42;;;29.30;39.10;;;;;;5095068;28;20059;-68
2022/07/05 08:58:37;;;;;;;4.35;1.50;;;28.80;38.80;;;;;;5096726;28;20052;-70
2022/07/05 09:01:03;;;;;;;5.43;1.60;;;27.90;39.10;;;;;;5111243;27;20122;-70
2022/07/05 09:03:52;;;;;;;5.15;1.70;;;27.20;40.20;;;;;;5096582;27;20056;-69
2022/07/05 09:06:24;;;;;;;6.70;1.67;;;26.50;41.50;;;;;;5098855;28;20055;-69
2022/07/05 09:08:54;;;;;;;6.90;1.95;;;26.10;43.00;;;;;;5102637;28;20111;-69
2022/07/05 09:11:23;;;;;;;9.50;1.70;;;25.60;43.50;;;;;;5122739;27;20130;-69
2022/07/05 09:13:50;;;;;;;7.57;2.55;;;25.20;44.50;;;;;;5103448;27;20058;-69
2022/07/05 09:16:16;;;;;;;5.40;1.52;;;24.80;45.30;;;;;;5098565;28;20525;-69
2022/07/05 09:18:56;;;;;;;3.17;1.45;;;24.80;46.40;;;;;;5100043;28;20126;-69
2022/07/05 09:21:23;;;;;;;6.10;1.48;;;24.90;46.20;;;;;;5101626;28;20104;-69
2022/07/05 09:24:04;;;;;;;5.80;1.85;;;24.80;46.40;;;;;;5105082;28;20427;-69
2022/07/05 09:26:38;;;;;;;6.57;1.80;;;24.80;45.90;;;;;;5113141;27;20043;-69
2022/07/05 09:29:09;;;;;;;10.43;2.00;;;24.70;44.70;;;;;;5136039;27;20462;-69
2022/07/05 09:31:40;;;;;;;5.37;1.67;;;24.60;45.10;;;;;;5094908;28;20044;-70
2022/07/05 09:34:11;;;;;;;12.53;2.20;;;24.50;45.00;;;;;;5103232;28;20090;-68
2022/07/05 09:36:53;;;;;;;10.20;2.37;;;24.60;45.50;;;;;;5106497;28;20047;-68
2022/07/05 09:39:39;;;;;;;4.70;1.60;;;24.80;45.60;;;;;;5094011;28;20063;-68
2022/07/05 09:42:09;;;;;;;4.97;1.60;;;24.70;45.90;;;;;;5094777;28;20511;-69
2022/07/05 09:44:41;;;;;;;5.10;1.40;;;24.30;45.30;;;;;;5076238;28;20394;-70
2022/07/05 09:47:18;;;;;;;6.90;2.10;;;24.20;45.90;;;;;;5100456;28;20044;-68
2022/07/05 09:49:47;;;;;;;8.87;2.30;;;24.00;46.40;;;;;;5094831;28;20127;-68
2022/07/05 09:52:29;;;;;;;8.77;2.10;;;23.80;46.40;;;;;;5097469;28;20074;-71
2022/07/05 09:55:02;;;;;;;14.17;2.17;;;23.70;47.10;;;;;;5096044;28;20126;-67
2022/07/05 09:57:27;;;;;;;16.03;2.40;;;23.70;47.30;;;;;;5098739;28;20051;-68
2022/07/05 10:00:20;;;;;;;6.23;1.43;;;23.80;47.60;;;;;;5099470;28;20039;-66
2022/07/05 10:02:51;;;;;;;5.77;1.50;;;24.00;47.90;;;;;;5091990;28;20055;-67
2022/07/05 10:05:21;;;;;;;3.57;1.30;;;24.10;47.80;;;;;;5099622;28;20087;-67
2022/07/05 10:07:49;;;;;;;5.60;1.53;;;24.10;47.20;;;;;;5097640;28;20044;-66
2022/07/05 10:10:19;;;;;;;5.10;1.67;;;;;;;;;;5096621;28;20048;-66
2022/07/05 10:12:53;;;;;;;5.43;1.40;;;23.90;47.10;;;;;;5108495;28;20075;-66
2022/07/05 10:15:19;;;;;;;;;;;;;;;;;;5099419;28;20093;-66
2022/07/05 10:17:50;;;;;;;4.07;1.43;;;23.60;48.00;;;;;;5097209;28;19966;-66
2022/07/05 10:20:37;;;;;;;7.23;1.63;;;23.50;48.30;;;;;;5094080;28;20056;-66
2022/07/05 10:23:13;;;;;;;5.60;1.50;;;23.30;49.30;;;;;;5094819;28;20098;-66
2022/07/05 10:25:42;;;;;;;6.77;1.63;;;23.30;49.50;;;;;;5094697;28;20047;-66
2022/07/05 10:28:08;;;;;;;5.83;1.63;;;23.20;49.70;;;;;;5107475;28;20058;-66
2022/07/05 10:30:35;;;;;;;6.33;1.90;;;23.20;50.30;;;;;;5110617;28;20039;-66
2022/07/05 10:33:07;;;;;;;5.27;1.30;;;23.30;50.40;;;;;;5101780;28;20036;-66
2022/07/05 10:35:33;;;;;;;4.50;1.50;;;23.40;49.80;;;;;;5097304;28;20040;-66
2022/07/05 10:38:00;;;;;;;6.53;1.83;;;23.40;49.60;;;;;;5103592;28;20086;-68
2022/07/05 10:40:28;;;;;;;5.40;1.67;;;23.50;49.90;;;;;;5103898;28;20104;-67
2022/07/05 10:43:01;;;;;;;4.03;1.50;;;23.50;50.70;;;;;;5103580;28;20066;-66
2022/07/05 10:45:33;;;;;;;3.27;1.17;;;23.50;50.70;;;;;;5093006;28;20131;-66
2022/07/05 10:48:27;;;;;;;5.40;1.40;;;23.40;50.60;;;;;;5093455;28;20117;-66
2022/07/05 10:51:00;;;;;;;3.17;1.20;;;23.30;51.80;;;;;;5093248;28;20142;-66
2022/07/05 10:53:27;;;;;;;4.20;1.30;;;23.20;51.70;;;;;;5093585;28;20143;-67
2022/07/05 10:55:54;;;;;;;4.57;1.30;;;23.20;50.80;;;;;;5093551;28;20040;-66
2022/07/05 10:58:21;;;;;;;3.73;1.40;;;;;;;;;;5093498;28;20156;-66
2022/07/05 11:00:52;;;;;;;4.07;1.30;;;23.00;49.50;;;;;;5093055;28;20055;-67
2022/07/05 11:03:43;;;;;;;6.17;1.63;;;23.00;50.30;;;;;;5093723;28;20438;-67
2022/07/05 11:06:19;;;;;;;6.77;1.40;;;23.10;50.30;;;;;;5093648;28;20411;-66
2022/07/05 11:08:57;;;;;;;4.53;1.77;;;23.00;50.30;;;;;;5092576;28;20044;-66
2022/07/05 11:11:35;;;;;;;6.80;1.47;;;;;;;;;;5092857;28;20052;-70
2022/07/05 11:14:03;;;;;;;5.57;1.37;;;22.80;50.50;;;;;;5093390;28;20510;-66
2022/07/05 11:16:31;;;;;;;4.17;1.40;;;22.80;50.80;;;;;;5107393;27;20058;-66
2022/07/05 11:19:17;;;;;;;4.03;1.30;;;22.70;50.50;;;;;;5134139;27;20043;-66
2022/07/05 11:22:05;;;;;;;4.70;1.40;;;22.70;50.80;;;;;;5058316;28;20063;-66
2022/07/05 11:24:37;;;;;;;6.50;1.93;;;22.70;50.70;;;;;;5093154;28;20123;-66
2022/07/05 11:27:09;;;;;;;9.37;1.90;;;22.60;52.30;;;;;;5093059;28;20048;-66
2022/07/05 11:29:46;;;;;;;6.40;1.70;;;22.50;54.10;;;;;;5093020;28;20617;-66
2022/07/05 11:32:13;;;;;;;5.87;1.27;;;;;;;;;;5093048;28;20087;-66
2022/07/05 11:34:40;;;;;;;8.77;2.03;;;22.20;56.30;;;;;;5093059;28;20441;-66
2022/07/05 11:37:24;;;;;;;5.97;1.60;;;22.00;57.90;;;;;;5093150;28;20044;-66
2022/07/05 11:40:10;;;;;;;7.07;1.57;;;21.90;58.90;;;;;;5095023;28;20510;-66
2022/07/05 11:42:42;;;;;;;5.30;1.60;;;;;;;;;;5100019;28;20040;-66
2022/07/05 11:45:08;;;;;;;3.83;1.23;;;21.70;60.00;;;;;;5108304;28;20416;-66
2022/07/05 11:47:35;;;;;;;5.67;1.40;;;21.60;61.20;;;;;;5104074;28;20453;-66
2022/07/05 11:50:02;;;;;;;5.87;1.40;;;21.70;61.00;;;;;;5105411;28;20040;-66
2022/07/05 11:52:32;;;;;;;4.60;1.40;;;21.80;59.00;;;;;;5094873;28;20059;-67
2022/07/05 11:55:06;;;;;;;4.40;1.30;;;21.80;58.80;;;;;;5100381;28;20556;-66
2022/07/05 11:57:32;;;;;;;5.97;1.57;;;21.90;58.60;;;;;;5092505;28;20521;-67
2022/07/05 11:59:58;;;;;;;9.23;1.80;;;21.90;59.40;;;;;;5105857;28;20123;-67
2022/07/05 12:02:24;;;;;;;5.47;1.50;;;22.00;59.90;;;;;;5111089;28;20119;-66
2022/07/05 12:04:54;;;;;;;4.90;1.33;;;22.10;59.90;;;;;;5094360;28;20039;-67
2022/07/05 12:07:35;;;;;;;8.67;1.60;;;22.10;60.30;;;;;;5102845;28;20043;-66
2022/07/05 12:12:47;;;;;;;6.10;1.60;;;22.10;59.50;;;;;;5096259;28;20056;-67
2022/07/05 12:15:21;;;;;;;5.57;1.37;;;22.20;57.90;;;;;;5097416;28;20044;-67
2022/07/05 12:17:54;;;;;;;4.23;1.10;;;22.20;57.30;;;;;;5132043;28;20108;-67
2022/07/05 12:20:24;;;;;;;4.83;1.40;;;22.20;57.40;;;;;;5122313;28;20058;-68
2022/07/05 12:22:51;;;;;;;7.63;1.97;;;22.30;56.70;;;;;;5096960;28;20071;-66
2022/07/05 12:25:19;;;;;;;2.77;1.33;;;22.40;57.10;;;;;;5105743;28;20051;-67
2022/07/05 12:27:47;;;;;;;6.37;1.57;;;22.50;56.80;;;;;;5106535;28;20040;-66
2022/07/05 12:30:14;;;;;;;8.43;1.70;;;22.70;55.60;;;;;;5105564;28;20046;-67
2022/07/05 12:33:09;;;;;;;5.13;1.50;;;22.70;55.40;;;;;;5105345;28;20067;-67
2022/07/05 12:35:42;;;;;;;4.93;1.60;;;22.70;55.40;;;;;;5101043;28;20046;-67
2022/07/05 12:38:09;;;;;;;4.40;1.50;;;22.70;55.70;;;;;;5097261;28;20402;-66
2022/07/05 12:40:41;;;;;;;5.47;1.47;;;22.80;55.80;;;;;;5096324;28;20414;-66
2022/07/05 12:43:12;;;;;;;7.83;2.13;;;22.80;55.40;;;;;;5098823;28;20123;-66
2022/07/05 12:45:39;;;;;;;5.13;1.60;;;22.80;55.70;;;;;;5097336;28;20042;-67
2022/07/05 12:48:07;;;;;;;4.67;1.40;;;22.80;56.00;;;;;;5096377;28;20040;-67
2022/07/05 12:50:55;;;;;;;6.07;1.80;;;22.70;55.50;;;;;;5109304;27;20050;-67
2022/07/05 12:59:11;;;;;;;4.73;1.70;;;22.60;54.60;;;;;;5096070;28;20044;-66
2022/07/05 13:01:40;;;;;;;5.07;1.53;;;22.60;54.20;;;;;;5095855;28;20136;-66
2022/07/05 13:04:17;;;;;;;3.60;1.50;;;22.60;54.30;;;;;;5080993;28;20436;-71
2022/07/05 13:06:44;;;;;;;4.50;1.37;;;22.60;54.60;;;;;;5090074;28;20052;-66
2022/07/05 13:09:11;;;;;;;5.97;1.53;;;22.60;53.70;;;;;;5095638;28;20042;-66
2022/07/05 13:11:37;;;;;;;5.37;1.80;;;22.60;54.40;;;;;;5105059;27;20082;-66
2022/07/05 13:14:03;;;;;;;3.63;1.50;;;22.60;54.60;;;;;;5102508;28;20040;-66